sensor_id;sensor_type;location;lat;lon;timestamp;pressure;altitude;pressure_sealevel;temperature;humidity
59877;BME280;45749;51.140;17.184;2023-09-19T00:00:30;99367.97;;;22.59;73.39
59877;BME280;45749;51.140;17.184;2023-09-19T00:02:57;99366.31;;;22.58;73.29
59877;BME280;45749;51.140;17.184;2023-09-19T00:05:25;99356.03;;;22.48;73.41
59877;BME280;45749;51.140;17.184;2023-09-19T00:07:53;99367.19;;;22.45;73.55
59877;BME280;45749;51.140;17.184;2023-09-19T00:10:23;99360.84;;;22.26;73.96
59877;BME280;45749;51.140;17.184;2023-09-19T00:12:55;99390.81;;;22.23;73.97
59877;BME280;45749;51.140;17.184;2023-09-19T00:15:21;99382.75;;;22.10;74.27
59877;BME280;45749;51.140;17.184;2023-09-19T00:17:47;99374.69;;;21.96;74.70
59877;BME280;45749;51.140;17.184;2023-09-19T00:20:13;99381.53;;;21.99;74.73
59877;BME280;45749;51.140;17.184;2023-09-19T00:22:41;99375.53;;;21.97;74.97
59877;BME280;45749;51.140;17.184;2023-09-19T00:25:37;99388.94;;;21.97;75.05
59877;BME280;45749;51.140;17.184;2023-09-19T00:28:04;99383.41;;;21.85;75.04
59877;BME280;45749;51.140;17.184;2023-09-19T00:30:30;99377.19;;;21.78;75.55
59877;BME280;45749;51.140;17.184;2023-09-19T00:32:56;99371.63;;;21.60;75.66
59877;BME280;45749;51.140;17.184;2023-09-19T00:35:22;99371.19;;;21.49;76.21
59877;BME280;45749;51.140;17.184;2023-09-19T00:37:51;99372.22;;;21.48;75.95
59877;BME280;45749;51.140;17.184;2023-09-19T00:40:17;99384.81;;;21.48;76.55
59877;BME280;45749;51.140;17.184;2023-09-19T00:42:43;99374.47;;;21.38;76.60
59877;BME280;45749;51.140;17.184;2023-09-19T00:45:10;99367.41;;;21.30;76.94
59877;BME280;45749;51.140;17.184;2023-09-19T00:47:47;99373.00;;;21.29;77.22
59877;BME280;45749;51.140;17.184;2023-09-19T00:50:15;99387.66;;;21.33;77.39
59877;BME280;45749;51.140;17.184;2023-09-19T00:52:46;99384.97;;;21.33;77.40
59877;BME280;45749;51.140;17.184;2023-09-19T00:55:12;99382.06;;;21.21;77.79
59877;BME280;45749;51.140;17.184;2023-09-19T00:57:42;99382.69;;;21.17;78.14
59877;BME280;45749;51.140;17.184;2023-09-19T01:00:09;99360.97;;;21.12;78.34
59877;BME280;45749;51.140;17.184;2023-09-19T01:02:41;99371.56;;;21.26;78.17
59877;BME280;45749;51.140;17.184;2023-09-19T01:05:08;99366.16;;;21.20;78.30
59877;BME280;45749;51.140;17.184;2023-09-19T01:07:34;99356.84;;;21.16;78.26
59877;BME280;45749;51.140;17.184;2023-09-19T01:10:02;99365.00;;;21.36;78.48
59877;BME280;45749;51.140;17.184;2023-09-19T01:18:11;99368.53;;;21.63;78.14
59877;BME280;45749;51.140;17.184;2023-09-19T01:26:18;99361.28;;;21.63;77.79
59877;BME280;45749;51.140;17.184;2023-09-19T01:29:01;99342.69;;;21.48;77.94
59877;BME280;45749;51.140;17.184;2023-09-19T01:31:39;99364.38;;;21.67;77.54
59877;BME280;45749;51.140;17.184;2023-09-19T01:34:10;99341.03;;;21.54;77.62
59877;BME280;45749;51.140;17.184;2023-09-19T01:36:37;99353.00;;;21.58;77.70
59877;BME280;45749;51.140;17.184;2023-09-19T01:39:15;99342.50;;;21.50;77.91
59877;BME280;45749;51.140;17.184;2023-09-19T01:41:54;99335.50;;;21.49;78.00
59877;BME280;45749;51.140;17.184;2023-09-19T01:44:29;99333.22;;;21.46;77.74
59877;BME280;45749;51.140;17.184;2023-09-19T01:46:58;99368.72;;;21.54;78.28
59877;BME280;45749;51.140;17.184;2023-09-19T01:49:50;99368.28;;;21.51;78.85
59877;BME280;45749;51.140;17.184;2023-09-19T01:52:21;99370.16;;;21.44;79.18
59877;BME280;45749;51.140;17.184;2023-09-19T01:54:52;99374.88;;;21.42;79.69
59877;BME280;45749;51.140;17.184;2023-09-19T01:57:29;99372.16;;;21.28;79.58
59877;BME280;45749;51.140;17.184;2023-09-19T02:00:04;99372.16;;;21.22;80.78
59877;BME280;45749;51.140;17.184;2023-09-19T02:02:36;99371.72;;;21.18;80.46
59877;BME280;45749;51.140;17.184;2023-09-19T02:05:03;99372.34;;;21.14;80.58
59877;BME280;45749;51.140;17.184;2023-09-19T02:07:29;99363.25;;;21.08;81.11
59877;BME280;45749;51.140;17.184;2023-09-19T02:09:58;99365.50;;;21.04;81.23
59877;BME280;45749;51.140;17.184;2023-09-19T02:12:25;99353.94;;;20.97;81.78
59877;BME280;45749;51.140;17.184;2023-09-19T02:14:50;99362.81;;;21.04;81.76
59877;BME280;45749;51.140;17.184;2023-09-19T02:17:16;99362.22;;;21.09;81.91
59877;BME280;45749;51.140;17.184;2023-09-19T02:19:42;99349.84;;;21.15;81.85
59877;BME280;45749;51.140;17.184;2023-09-19T02:22:07;99367.41;;;21.17;81.79
59877;BME280;45749;51.140;17.184;2023-09-19T02:24:36;99364.94;;;21.22;81.58
59877;BME280;45749;51.140;17.184;2023-09-19T02:27:03;99368.63;;;21.21;81.61
59877;BME280;45749;51.140;17.184;2023-09-19T02:29:31;99374.63;;;21.17;81.46
59877;BME280;45749;51.140;17.184;2023-09-19T02:31:57;99362.03;;;21.11;82.22
59877;BME280;45749;51.140;17.184;2023-09-19T02:34:22;99380.78;;;21.11;82.12
59877;BME280;45749;51.140;17.184;2023-09-19T02:36:48;99375.63;;;21.09;82.38
59877;BME280;45749;51.140;17.184;2023-09-19T02:39:14;99380.41;;;21.14;82.72
59877;BME280;45749;51.140;17.184;2023-09-19T02:41:39;99374.41;;;21.18;82.44
59877;BME280;45749;51.140;17.184;2023-09-19T02:44:05;99384.34;;;21.24;82.59
59877;BME280;45749;51.140;17.184;2023-09-19T02:46:34;99378.78;;;21.33;82.39
59877;BME280;45749;51.140;17.184;2023-09-19T02:49:01;99368.47;;;21.29;82.20
59877;BME280;45749;51.140;17.184;2023-09-19T02:51:27;99371.38;;;21.41;82.29
59877;BME280;45749;51.140;17.184;2023-09-19T02:53:52;99367.25;;;21.45;82.09
59877;BME280;45749;51.140;17.184;2023-09-19T02:56:18;99352.00;;;21.46;82.02
59877;BME280;45749;51.140;17.184;2023-09-19T02:58:43;99350.13;;;21.40;82.02
59877;BME280;45749;51.140;17.184;2023-09-19T03:01:11;99342.63;;;21.28;82.25
59877;BME280;45749;51.140;17.184;2023-09-19T03:03:37;99335.63;;;21.21;82.14
59877;BME280;45749;51.140;17.184;2023-09-19T03:06:05;99331.72;;;21.17;82.51
59877;BME280;45749;51.140;17.184;2023-09-19T03:08:31;99327.78;;;21.13;82.40
59877;BME280;45749;51.140;17.184;2023-09-19T03:10:56;99329.19;;;21.08;82.77
59877;BME280;45749;51.140;17.184;2023-09-19T03:13:21;99331.28;;;21.06;82.73
59877;BME280;45749;51.140;17.184;2023-09-19T03:15:46;99335.81;;;21.06;82.80
59877;BME280;45749;51.140;17.184;2023-09-19T03:18:14;99337.25;;;21.08;82.83
59877;BME280;45749;51.140;17.184;2023-09-19T03:20:39;99339.13;;;21.15;83.22
59877;BME280;45749;51.140;17.184;2023-09-19T03:23:05;99336.84;;;21.12;82.87
59877;BME280;45749;51.140;17.184;2023-09-19T03:25:34;99344.91;;;21.18;82.97
59877;BME280;45749;51.140;17.184;2023-09-19T03:27:59;99344.31;;;21.23;83.15
59877;BME280;45749;51.140;17.184;2023-09-19T03:30:25;99340.59;;;21.30;82.68
59877;BME280;45749;51.140;17.184;2023-09-19T03:32:51;99341.66;;;21.36;82.75
59877;BME280;45749;51.140;17.184;2023-09-19T03:35:17;99347.44;;;21.40;82.30
59877;BME280;45749;51.140;17.184;2023-09-19T03:37:43;99345.38;;;21.42;81.98
59877;BME280;45749;51.140;17.184;2023-09-19T03:40:10;99348.69;;;21.44;82.29
59877;BME280;45749;51.140;17.184;2023-09-19T03:42:44;99357.38;;;21.46;82.03
59877;BME280;45749;51.140;17.184;2023-09-19T03:45:10;99352.00;;;21.46;82.34
59877;BME280;45749;51.140;17.184;2023-09-19T03:47:37;99354.88;;;21.44;81.91
59877;BME280;45749;51.140;17.184;2023-09-19T03:50:05;99362.72;;;21.46;82.54
59877;BME280;45749;51.140;17.184;2023-09-19T03:52:30;99359.41;;;21.44;82.41
59877;BME280;45749;51.140;17.184;2023-09-19T03:54:55;99354.69;;;21.39;82.39
59877;BME280;45749;51.140;17.184;2023-09-19T03:57:20;99366.44;;;21.45;82.36
59877;BME280;45749;51.140;17.184;2023-09-19T03:59:46;99359.63;;;21.42;82.51
59877;BME280;45749;51.140;17.184;2023-09-19T04:02:12;99358.59;;;21.43;82.68
59877;BME280;45749;51.140;17.184;2023-09-19T04:04:50;99361.88;;;21.39;82.74
59877;BME280;45749;51.140;17.184;2023-09-19T04:07:16;99351.38;;;21.37;82.65
59877;BME280;45749;51.140;17.184;2023-09-19T04:09:42;99353.81;;;21.39;82.47
59877;BME280;45749;51.140;17.184;2023-09-19T04:12:07;99350.28;;;21.31;82.24
59877;BME280;45749;51.140;17.184;2023-09-19T04:14:36;99353.97;;;21.11;82.48
59877;BME280;45749;51.140;17.184;2023-09-19T04:17:01;99359.53;;;21.09;82.72
59877;BME280;45749;51.140;17.184;2023-09-19T04:19:27;99343.00;;;21.05;82.88
59877;BME280;45749;51.140;17.184;2023-09-19T04:21:52;99357.06;;;21.07;83.48
59877;BME280;45749;51.140;17.184;2023-09-19T04:24:17;99349.25;;;21.13;83.47
59877;BME280;45749;51.140;17.184;2023-09-19T04:26:44;99353.16;;;21.17;82.93
59877;BME280;45749;51.140;17.184;2023-09-19T04:29:10;99353.78;;;21.19;83.23
59877;BME280;45749;51.140;17.184;2023-09-19T04:31:36;99358.72;;;21.22;83.16
59877;BME280;45749;51.140;17.184;2023-09-19T04:34:03;99355.22;;;21.21;83.28
59877;BME280;45749;51.140;17.184;2023-09-19T04:36:28;99358.13;;;21.26;82.83
59877;BME280;45749;51.140;17.184;2023-09-19T04:38:55;99352.38;;;21.29;82.97
59877;BME280;45749;51.140;17.184;2023-09-19T04:41:20;99350.50;;;21.30;82.75
59877;BME280;45749;51.140;17.184;2023-09-19T04:43:47;99355.06;;;21.29;82.82
59877;BME280;45749;51.140;17.184;2023-09-19T04:46:12;99361.63;;;21.27;82.94
59877;BME280;45749;51.140;17.184;2023-09-19T04:48:39;99360.19;;;21.24;82.50
59877;BME280;45749;51.140;17.184;2023-09-19T04:51:05;99369.47;;;21.22;82.83
59877;BME280;45749;51.140;17.184;2023-09-19T04:53:30;99363.09;;;21.23;82.89
59877;BME280;45749;51.140;17.184;2023-09-19T04:55:55;99368.44;;;21.23;83.01
59877;BME280;45749;51.140;17.184;2023-09-19T04:58:22;99370.31;;;21.22;82.86
59877;BME280;45749;51.140;17.184;2023-09-19T05:00:48;99373.81;;;21.23;83.06
59877;BME280;45749;51.140;17.184;2023-09-19T05:03:13;99374.63;;;21.23;83.17
59877;BME280;45749;51.140;17.184;2023-09-19T05:05:38;99378.53;;;21.21;82.93
59877;BME280;45749;51.140;17.184;2023-09-19T05:08:06;99376.28;;;21.18;83.08
59877;BME280;45749;51.140;17.184;2023-09-19T05:10:32;99373.41;;;21.19;82.83
59877;BME280;45749;51.140;17.184;2023-09-19T05:12:57;99376.28;;;21.18;82.99
59877;BME280;45749;51.140;17.184;2023-09-19T05:15:23;99384.94;;;21.20;82.95
59877;BME280;45749;51.140;17.184;2023-09-19T05:17:51;99385.13;;;21.18;82.65
59877;BME280;45749;51.140;17.184;2023-09-19T05:20:17;99381.84;;;21.16;83.15
59877;BME280;45749;51.140;17.184;2023-09-19T05:23:02;99368.03;;;21.13;82.89
59877;BME280;45749;51.140;17.184;2023-09-19T05:25:34;99382.84;;;21.15;83.29
59877;BME280;45749;51.140;17.184;2023-09-19T05:28:03;99380.56;;;21.12;82.94
59877;BME280;45749;51.140;17.184;2023-09-19T05:30:31;99392.34;;;21.11;83.26
59877;BME280;45749;51.140;17.184;2023-09-19T05:32:57;99391.53;;;21.11;82.85
59877;BME280;45749;51.140;17.184;2023-09-19T05:35:23;99392.16;;;21.06;83.09
59877;BME280;45749;51.140;17.184;2023-09-19T05:37:52;99387.38;;;21.01;83.17
59877;BME280;45749;51.140;17.184;2023-09-19T05:40:18;99399.72;;;20.96;83.26
59877;BME280;45749;51.140;17.184;2023-09-19T05:42:44;99403.84;;;20.98;83.21
59877;BME280;45749;51.140;17.184;2023-09-19T05:45:10;99410.91;;;20.99;83.39
59877;BME280;45749;51.140;17.184;2023-09-19T05:47:41;99412.53;;;21.00;83.40
59877;BME280;45749;51.140;17.184;2023-09-19T05:50:08;99413.75;;;20.98;83.77
59877;BME280;45749;51.140;17.184;2023-09-19T05:52:34;99405.72;;;20.98;83.67
59877;BME280;45749;51.140;17.184;2023-09-19T05:54:59;99426.97;;;20.99;83.54
59877;BME280;45749;51.140;17.184;2023-09-19T05:57:25;99425.53;;;20.97;83.71
59877;BME280;45749;51.140;17.184;2023-09-19T05:59:50;99432.09;;;20.94;83.47
59877;BME280;45749;51.140;17.184;2023-09-19T06:02:15;99431.03;;;20.89;83.89
59877;BME280;45749;51.140;17.184;2023-09-19T06:04:41;99434.34;;;20.84;84.02
59877;BME280;45749;51.140;17.184;2023-09-19T06:07:06;99430.84;;;20.83;84.31
59877;BME280;45749;51.140;17.184;2023-09-19T06:09:32;99440.50;;;20.78;84.85
59877;BME280;45749;51.140;17.184;2023-09-19T06:11:58;99442.34;;;20.77;84.81
59877;BME280;45749;51.140;17.184;2023-09-19T06:14:25;99438.84;;;20.77;84.72
59877;BME280;45749;51.140;17.184;2023-09-19T06:16:50;99431.81;;;20.76;84.83
59877;BME280;45749;51.140;17.184;2023-09-19T06:19:15;99430.97;;;20.69;85.21
59877;BME280;45749;51.140;17.184;2023-09-19T06:21:41;99435.72;;;20.67;85.29
59877;BME280;45749;51.140;17.184;2023-09-19T06:24:06;99439.25;;;20.74;85.54
59877;BME280;45749;51.140;17.184;2023-09-19T06:26:31;99445.63;;;20.79;85.62
59877;BME280;45749;51.140;17.184;2023-09-19T06:28:57;99450.44;;;20.84;86.02
59877;BME280;45749;51.140;17.184;2023-09-19T06:31:24;99443.41;;;20.83;85.95
59877;BME280;45749;51.140;17.184;2023-09-19T06:33:51;99451.59;;;20.75;85.68
59877;BME280;45749;51.140;17.184;2023-09-19T06:36:17;99456.53;;;20.71;86.00
59877;BME280;45749;51.140;17.184;2023-09-19T06:38:42;99456.28;;;20.66;85.83
59877;BME280;45749;51.140;17.184;2023-09-19T06:41:08;99464.28;;;20.59;86.17
59877;BME280;45749;51.140;17.184;2023-09-19T06:43:34;99470.69;;;20.58;86.40
59877;BME280;45749;51.140;17.184;2023-09-19T06:46:00;99473.97;;;20.54;86.68
59877;BME280;45749;51.140;17.184;2023-09-19T06:48:26;99468.09;;;20.44;86.61
59877;BME280;45749;51.140;17.184;2023-09-19T06:50:58;99469.50;;;20.39;87.15
59877;BME280;45749;51.140;17.184;2023-09-19T06:53:33;99473.56;;;20.29;86.80
59877;BME280;45749;51.140;17.184;2023-09-19T06:56:00;99484.03;;;20.24;86.65
59877;BME280;45749;51.140;17.184;2023-09-19T06:58:26;99488.16;;;20.26;86.63
59877;BME280;45749;51.140;17.184;2023-09-19T07:00:51;99494.16;;;20.28;86.45
59877;BME280;45749;51.140;17.184;2023-09-19T07:03:16;99486.06;;;20.22;85.87
59877;BME280;45749;51.140;17.184;2023-09-19T07:05:47;99497.44;;;20.24;86.86
59877;BME280;45749;51.140;17.184;2023-09-19T07:08:13;99495.97;;;20.21;86.36
59877;BME280;45749;51.140;17.184;2023-09-19T07:10:39;99495.69;;;20.16;86.46
59877;BME280;45749;51.140;17.184;2023-09-19T07:13:15;99505.16;;;20.12;86.77
59877;BME280;45749;51.140;17.184;2023-09-19T07:15:42;99509.88;;;20.10;86.82
59877;BME280;45749;51.140;17.184;2023-09-19T07:18:17;99519.75;;;20.09;87.11
59877;BME280;45749;51.140;17.184;2023-09-19T07:20:46;99519.97;;;20.08;87.42
59877;BME280;45749;51.140;17.184;2023-09-19T07:23:16;99526.91;;;20.02;87.15
59877;BME280;45749;51.140;17.184;2023-09-19T07:25:41;99517.97;;;19.95;87.12
59877;BME280;45749;51.140;17.184;2023-09-19T07:28:06;99513.66;;;19.94;87.16
59877;BME280;45749;51.140;17.184;2023-09-19T07:30:36;99520.59;;;19.88;87.54
59877;BME280;45749;51.140;17.184;2023-09-19T07:33:02;99516.44;;;19.86;87.94
59877;BME280;45749;51.140;17.184;2023-09-19T07:35:29;99520.22;;;19.91;87.95
59877;BME280;45749;51.140;17.184;2023-09-19T07:37:54;99526.63;;;19.97;87.88
59877;BME280;45749;51.140;17.184;2023-09-19T07:40:21;99520.28;;;19.98;87.63
59877;BME280;45749;51.140;17.184;2023-09-19T07:42:46;99526.53;;;20.05;87.66
59877;BME280;45749;51.140;17.184;2023-09-19T07:45:12;99531.22;;;20.03;87.47
59877;BME280;45749;51.140;17.184;2023-09-19T07:50:10;99532.25;;;20.02;86.69
59877;BME280;45749;51.140;17.184;2023-09-19T07:52:36;99531.81;;;19.99;86.68
59877;BME280;45749;51.140;17.184;2023-09-19T07:55:05;99524.75;;;19.91;87.24
59877;BME280;45749;51.140;17.184;2023-09-19T07:57:34;99536.28;;;19.91;87.08
59877;BME280;45749;51.140;17.184;2023-09-19T08:00:00;99541.50;;;20.00;87.04
59877;BME280;45749;51.140;17.184;2023-09-19T08:02:25;99536.97;;;20.00;87.32
59877;BME280;45749;51.140;17.184;2023-09-19T08:04:51;99544.69;;;20.10;87.49
59877;BME280;45749;51.140;17.184;2023-09-19T08:07:17;99539.09;;;20.05;87.11
59877;BME280;45749;51.140;17.184;2023-09-19T08:09:43;99552.31;;;20.13;87.26
59877;BME280;45749;51.140;17.184;2023-09-19T08:12:13;99553.41;;;20.19;87.27
59877;BME280;45749;51.140;17.184;2023-09-19T08:14:40;99556.38;;;20.24;87.18
59877;BME280;45749;51.140;17.184;2023-09-19T08:17:06;99559.66;;;20.26;87.38
59877;BME280;45749;51.140;17.184;2023-09-19T08:19:33;99564.63;;;20.29;87.29
59877;BME280;45749;51.140;17.184;2023-09-19T08:21:59;99549.91;;;20.18;86.80
59877;BME280;45749;51.140;17.184;2023-09-19T08:24:28;99581.16;;;20.32;86.76
59877;BME280;45749;51.140;17.184;2023-09-19T08:26:55;99566.22;;;20.23;86.70
59877;BME280;45749;51.140;17.184;2023-09-19T08:29:25;99583.81;;;20.32;86.16
59877;BME280;45749;51.140;17.184;2023-09-19T08:31:54;99571.13;;;20.20;85.81
59877;BME280;45749;51.140;17.184;2023-09-19T08:34:21;99558.34;;;20.15;85.30
59877;BME280;45749;51.140;17.184;2023-09-19T08:36:46;99579.56;;;20.17;85.95
59877;BME280;45749;51.140;17.184;2023-09-19T08:39:13;99563.41;;;20.10;85.82
59877;BME280;45749;51.140;17.184;2023-09-19T08:41:39;99581.63;;;20.14;85.98
59877;BME280;45749;51.140;17.184;2023-09-19T08:44:04;99578.94;;;20.14;85.92
59877;BME280;45749;51.140;17.184;2023-09-19T08:46:30;99595.06;;;20.21;85.99
59877;BME280;45749;51.140;17.184;2023-09-19T08:49:12;99597.97;;;20.26;84.95
59877;BME280;45749;51.140;17.184;2023-09-19T08:51:45;99595.13;;;20.28;85.54
59877;BME280;45749;51.140;17.184;2023-09-19T08:56:47;99588.25;;;20.19;85.16
59877;BME280;45749;51.140;17.184;2023-09-19T08:59:13;99594.69;;;20.24;86.21
59877;BME280;45749;51.140;17.184;2023-09-19T09:01:40;99590.53;;;20.22;85.35
59877;BME280;45749;51.140;17.184;2023-09-19T09:04:08;99602.13;;;20.29;85.34
59877;BME280;45749;51.140;17.184;2023-09-19T09:06:34;99603.94;;;20.22;84.41
59877;BME280;45749;51.140;17.184;2023-09-19T09:09:01;99598.31;;;20.17;84.52
59877;BME280;45749;51.140;17.184;2023-09-19T09:11:28;99596.41;;;20.10;84.97
59877;BME280;45749;51.140;17.184;2023-09-19T09:13:53;99600.38;;;20.14;84.96
59877;BME280;45749;51.140;17.184;2023-09-19T09:16:19;99615.69;;;20.21;84.82
59877;BME280;45749;51.140;17.184;2023-09-19T09:18:45;99621.03;;;20.21;84.83
59877;BME280;45749;51.140;17.184;2023-09-19T09:21:11;99620.38;;;20.19;84.82
59877;BME280;45749;51.140;17.184;2023-09-19T09:23:40;99626.00;;;20.24;84.63
59877;BME280;45749;51.140;17.184;2023-09-19T09:26:06;99626.19;;;20.22;84.50
59877;BME280;45749;51.140;17.184;2023-09-19T09:28:33;99634.28;;;20.29;84.47
59877;BME280;45749;51.140;17.184;2023-09-19T09:31:00;99638.88;;;20.35;84.72
59877;BME280;45749;51.140;17.184;2023-09-19T09:33:34;99633.16;;;20.38;84.84
59877;BME280;45749;51.140;17.184;2023-09-19T09:36:01;99636.91;;;20.44;84.55
59877;BME280;45749;51.140;17.184;2023-09-19T09:38:49;99641.88;;;20.47;84.77
59877;BME280;45749;51.140;17.184;2023-09-19T09:41:17;99638.50;;;20.38;84.69
59877;BME280;45749;51.140;17.184;2023-09-19T09:43:53;99643.09;;;20.44;83.96
59877;BME280;45749;51.140;17.184;2023-09-19T09:46:20;99645.19;;;20.49;84.71
59877;BME280;45749;51.140;17.184;2023-09-19T09:48:47;99649.59;;;20.56;84.33
59877;BME280;45749;51.140;17.184;2023-09-19T09:51:32;99657.31;;;20.66;83.84
59877;BME280;45749;51.140;17.184;2023-09-19T09:54:14;99648.28;;;20.67;84.19
59877;BME280;45749;51.140;17.184;2023-09-19T09:56:54;99657.84;;;20.76;83.74
59877;BME280;45749;51.140;17.184;2023-09-19T09:59:20;99654.97;;;20.78;83.98
59877;BME280;45749;51.140;17.184;2023-09-19T10:01:49;99652.66;;;20.75;83.43
59877;BME280;45749;51.140;17.184;2023-09-19T10:04:35;99651.69;;;20.82;83.11
59877;BME280;45749;51.140;17.184;2023-09-19T10:07:07;99659.16;;;20.87;83.44
59877;BME280;45749;51.140;17.184;2023-09-19T10:09:46;99657.09;;;20.89;83.34
59877;BME280;45749;51.140;17.184;2023-09-19T10:12:12;99662.94;;;20.93;82.91
59877;BME280;45749;51.140;17.184;2023-09-19T10:14:41;99658.84;;;20.97;83.58
59877;BME280;45749;51.140;17.184;2023-09-19T10:17:09;99654.63;;;20.88;82.67
59877;BME280;45749;51.140;17.184;2023-09-19T10:19:42;99674.97;;;21.03;82.89
59877;BME280;45749;51.140;17.184;2023-09-19T10:22:12;99662.78;;;21.01;83.57
59877;BME280;45749;51.140;17.184;2023-09-19T10:24:40;99670.44;;;21.04;82.80
59877;BME280;45749;51.140;17.184;2023-09-19T10:27:06;99672.53;;;21.08;82.46
59877;BME280;45749;51.140;17.184;2023-09-19T10:29:35;99682.25;;;21.10;82.10
59877;BME280;45749;51.140;17.184;2023-09-19T10:32:05;99667.50;;;20.99;82.18
59877;BME280;45749;51.140;17.184;2023-09-19T10:34:35;99676.63;;;21.04;82.38
59877;BME280;45749;51.140;17.184;2023-09-19T10:37:02;99681.97;;;21.04;82.54
59877;BME280;45749;51.140;17.184;2023-09-19T10:39:31;99670.00;;;21.00;82.01
59877;BME280;45749;51.140;17.184;2023-09-19T10:42:01;99680.72;;;21.00;81.71
59877;BME280;45749;51.140;17.184;2023-09-19T10:44:32;99680.84;;;20.92;81.85
59877;BME280;45749;51.140;17.184;2023-09-19T10:46:58;99694.91;;;20.94;81.19
59877;BME280;45749;51.140;17.184;2023-09-19T10:49:24;99690.56;;;20.93;81.07
59877;BME280;45749;51.140;17.184;2023-09-19T10:51:54;99698.63;;;20.93;80.59
59877;BME280;45749;51.140;17.184;2023-09-19T10:54:27;99681.22;;;20.89;81.12
59877;BME280;45749;51.140;17.184;2023-09-19T10:56:54;99684.81;;;20.96;81.41
59877;BME280;45749;51.140;17.184;2023-09-19T10:59:21;99694.63;;;21.11;81.20
59877;BME280;45749;51.140;17.184;2023-09-19T11:01:50;99692.81;;;21.18;80.99
59877;BME280;45749;51.140;17.184;2023-09-19T11:04:28;99699.81;;;21.19;80.98
59877;BME280;45749;51.140;17.184;2023-09-19T11:09:48;99701.06;;;21.16;80.08
59877;BME280;45749;51.140;17.184;2023-09-19T11:14:57;99695.72;;;21.16;80.31
59877;BME280;45749;51.140;17.184;2023-09-19T11:30:43;99706.69;;;21.49;75.60
59877;BME280;45749;51.140;17.184;2023-09-19T11:43:54;99698.34;;;21.72;74.57
59877;BME280;45749;51.140;17.184;2023-09-19T11:46:54;99695.69;;;21.79;74.67
59877;BME280;45749;51.140;17.184;2023-09-19T11:49:28;99683.91;;;21.80;73.65
59877;BME280;45749;51.140;17.184;2023-09-19T11:51:57;99699.91;;;21.95;72.91
59877;BME280;45749;51.140;17.184;2023-09-19T11:54:26;99687.69;;;21.92;72.66
59877;BME280;45749;51.140;17.184;2023-09-19T11:56:56;99710.00;;;21.93;72.00
59877;BME280;45749;51.140;17.184;2023-09-19T11:59:29;99689.72;;;21.84;72.10
59877;BME280;45749;51.140;17.184;2023-09-19T12:01:57;99716.00;;;21.88;71.14
59877;BME280;45749;51.140;17.184;2023-09-19T12:04:35;99709.16;;;21.86;70.89
59877;BME280;45749;51.140;17.184;2023-09-19T12:07:07;99706.66;;;21.84;71.15
59877;BME280;45749;51.140;17.184;2023-09-19T12:09:40;99701.69;;;21.81;70.91
59877;BME280;45749;51.140;17.184;2023-09-19T12:12:09;99710.63;;;21.88;71.17
59877;BME280;45749;51.140;17.184;2023-09-19T12:14:34;99717.84;;;21.94;71.46
59877;BME280;45749;51.140;17.184;2023-09-19T12:17:00;99709.19;;;21.92;71.39
59877;BME280;45749;51.140;17.184;2023-09-19T12:19:27;99709.78;;;21.94;70.72
59877;BME280;45749;51.140;17.184;2023-09-19T12:22:03;99705.88;;;21.97;70.03
59877;BME280;45749;51.140;17.184;2023-09-19T12:24:32;99715.03;;;22.09;69.89
59877;BME280;45749;51.140;17.184;2023-09-19T12:27:03;99706.56;;;22.06;69.83
59877;BME280;45749;51.140;17.184;2023-09-19T12:29:30;99711.53;;;22.09;69.39
59877;BME280;45749;51.140;17.184;2023-09-19T12:31:57;99698.09;;;22.09;68.58
59877;BME280;45749;51.140;17.184;2023-09-19T12:34:28;99706.66;;;22.26;68.00
59877;BME280;45749;51.140;17.184;2023-09-19T12:37:13;99709.53;;;22.31;67.02
59877;BME280;45749;51.140;17.184;2023-09-19T12:39:49;99697.13;;;22.30;67.28
59877;BME280;45749;51.140;17.184;2023-09-19T12:42:18;99703.34;;;22.37;66.72
59877;BME280;45749;51.140;17.184;2023-09-19T12:44:46;99696.56;;;22.34;66.99
59877;BME280;45749;51.140;17.184;2023-09-19T12:47:16;99699.44;;;22.39;67.31
59877;BME280;45749;51.140;17.184;2023-09-19T12:52:49;99704.19;;;22.44;65.65
59877;BME280;45749;51.140;17.184;2023-09-19T12:58:02;99695.50;;;22.29;65.74
59877;BME280;45749;51.140;17.184;2023-09-19T13:03:25;99706.03;;;22.30;64.19
59877;BME280;45749;51.140;17.184;2023-09-19T13:05:52;99704.16;;;22.24;63.88
59877;BME280;45749;51.140;17.184;2023-09-19T13:08:21;99693.00;;;22.27;63.80
59877;BME280;45749;51.140;17.184;2023-09-19T13:13:33;99674.63;;;22.37;63.25
59877;BME280;45749;51.140;17.184;2023-09-19T13:15:58;99684.16;;;22.46;62.09
59877;BME280;45749;51.140;17.184;2023-09-19T13:18:26;99678.59;;;22.48;62.87
59877;BME280;45749;51.140;17.184;2023-09-19T13:21:10;99675.09;;;22.54;63.22
59877;BME280;45749;51.140;17.184;2023-09-19T13:23:38;99669.31;;;22.64;63.46
59877;BME280;45749;51.140;17.184;2023-09-19T13:26:03;99667.63;;;22.63;62.95
59877;BME280;45749;51.140;17.184;2023-09-19T13:28:31;99664.94;;;22.63;62.78
59877;BME280;45749;51.140;17.184;2023-09-19T13:30:56;99678.38;;;22.76;62.68
59877;BME280;45749;51.140;17.184;2023-09-19T13:33:22;99656.69;;;22.71;60.96
59877;BME280;45749;51.140;17.184;2023-09-19T13:35:47;99674.88;;;22.76;59.75
59877;BME280;45749;51.140;17.184;2023-09-19T13:38:13;99667.03;;;22.74;60.41
59877;BME280;45749;51.140;17.184;2023-09-19T13:40:39;99663.31;;;22.75;59.14
59877;BME280;45749;51.140;17.184;2023-09-19T13:43:07;99662.66;;;22.73;59.54
59877;BME280;45749;51.140;17.184;2023-09-19T13:45:33;99666.19;;;22.74;59.27
59877;BME280;45749;51.140;17.184;2023-09-19T13:47:59;99662.47;;;22.68;59.59
59877;BME280;45749;51.140;17.184;2023-09-19T13:50:24;99676.75;;;22.75;59.31
59877;BME280;45749;51.140;17.184;2023-09-19T13:52:51;99678.19;;;22.78;59.08